createdAt,value
2022-08-10T00:00:53.799Z,17.89
2022-08-10T00:03:21.187Z,17.82
2022-08-10T00:05:52.716Z,17.77
2022-08-10T00:08:23.891Z,17.67
2022-08-10T00:10:52.124Z,17.71
2022-08-10T00:13:21.584Z,17.66
2022-08-10T00:15:53.340Z,17.64
2022-08-10T00:18:34.465Z,17.68
2022-08-10T00:21:03.169Z,17.55
2022-08-10T00:23:30.592Z,17.62
2022-08-10T00:25:57.997Z,17.64
2022-08-10T00:28:26.741Z,17.65
2022-08-10T00:30:54.757Z,17.61
2022-08-10T00:33:22.142Z,17.61
2022-08-10T00:35:50.537Z,17.43
2022-08-10T00:38:18.008Z,17.46
2022-08-10T00:40:46.066Z,17.50
2022-08-10T00:43:13.529Z,17.39
2022-08-10T00:45:42.253Z,17.38
2022-08-10T00:48:10.660Z,17.28
2022-08-10T00:50:38.123Z,17.27
2022-08-10T00:53:06.221Z,17.13
2022-08-10T00:55:33.862Z,16.98
2022-08-10T00:58:21.806Z,17.01
2022-08-10T01:00:50.549Z,17.05
2022-08-10T01:03:18.064Z,17.09
2022-08-10T01:06:13.544Z,17.08
2022-08-10T01:08:52.311Z,16.96
2022-08-10T01:12:40.049Z,16.98
2022-08-10T01:14:24.055Z,17.03
2022-08-10T01:16:57.806Z,17.10
2022-08-10T01:19:43.195Z,17.02
2022-08-10T01:22:39.602Z,16.93
2022-08-10T01:25:21.767Z,16.90
2022-08-10T01:28:01.452Z,17.12
2022-08-10T01:30:33.570Z,17.16
2022-08-10T01:33:06.260Z,16.97
2022-08-10T01:35:39.310Z,16.82
2022-08-10T01:38:11.269Z,16.84
2022-08-10T01:40:49.890Z,16.79
2022-08-10T01:43:20.099Z,16.74
2022-08-10T01:45:55.722Z,16.81
2022-08-10T01:48:31.464Z,16.58
2022-08-10T01:51:05.684Z,16.64
2022-08-10T01:53:40.034Z,16.57
2022-08-10T01:56:11.609Z,16.50
2022-08-10T01:58:40.488Z,16.42
2022-08-10T02:01:16.600Z,16.38
2022-08-10T02:04:04.928Z,16.43
2022-08-10T02:06:36.649Z,16.34
2022-08-10T02:09:07.171Z,16.17
2022-08-10T02:12:05.338Z,16.18
2022-08-10T02:14:25.546Z,16.15
2022-08-10T02:17:03.639Z,16.11
2022-08-10T02:19:34.130Z,16.13
2022-08-10T02:22:34.782Z,16.11
2022-08-10T02:24:53.242Z,15.96
2022-08-10T02:27:25.317Z,15.90
2022-08-10T02:29:54.599Z,15.94
2022-08-10T02:32:36.222Z,15.98
2022-08-10T02:35:06.942Z,15.85
2022-08-10T02:37:38.294Z,15.73
2022-08-10T02:40:06.690Z,15.76
2022-08-10T02:45:19.856Z,15.80
2022-08-10T02:45:54.404Z,15.87
2022-08-10T02:48:28.736Z,15.94
2022-08-10T02:50:57.696Z,15.97
2022-08-10T02:53:54.682Z,16.01
2022-08-10T02:56:23.909Z,16.00
2022-08-10T02:58:56.337Z,15.99
2022-08-10T03:01:28.213Z,15.89
2022-08-10T03:04:01.671Z,15.85
2022-08-10T03:06:35.792Z,15.86
2022-08-10T03:09:04.563Z,15.74
2022-08-10T03:12:37.891Z,15.37
2022-08-10T03:14:22.493Z,15.43
2022-08-10T03:16:52.769Z,15.46
2022-08-10T03:20:33.335Z,15.51
2022-08-10T03:22:10.886Z,15.60
2022-08-10T03:24:40.032Z,15.61
2022-08-10T03:27:08.102Z,15.45
2022-08-10T03:30:29.703Z,15.46
2022-08-10T03:32:25.530Z,15.46
2022-08-10T03:34:55.274Z,15.40
2022-08-10T03:37:22.754Z,15.40
2022-08-10T03:39:51.293Z,15.32
2022-08-10T03:42:21.127Z,15.28
2022-08-10T03:44:50.832Z,15.31
2022-08-10T03:47:20.839Z,15.39
2022-08-10T03:49:49.903Z,15.48
2022-08-10T03:52:20.194Z,15.53
2022-08-10T03:54:51.481Z,15.50
2022-08-10T03:57:19.538Z,15.61
2022-08-10T03:59:47.596Z,15.56
2022-08-10T04:02:45.458Z,15.57
2022-08-10T04:05:02.985Z,15.70
2022-08-10T04:07:31.980Z,15.62
2022-08-10T04:09:59.360Z,15.72
2022-08-10T04:12:27.283Z,15.77
2022-08-10T04:14:54.683Z,15.81
2022-08-10T04:18:03.038Z,15.87
2022-08-10T04:20:19.203Z,15.92
2022-08-10T04:22:51.632Z,15.98
2022-08-10T04:25:19.970Z,16.01
2022-08-10T04:27:48.154Z,16.08
2022-08-10T04:30:15.957Z,15.94
2022-08-10T04:32:45.319Z,15.94
2022-08-10T04:35:14.837Z,15.98
2022-08-10T04:37:47.190Z,15.97
2022-08-10T04:40:28.296Z,16.05
2022-08-10T04:43:02.117Z,16.19
2022-08-10T04:45:49.011Z,16.17
2022-08-10T04:48:42.400Z,16.18
2022-08-10T04:51:05.871Z,16.24
2022-08-10T04:53:33.265Z,16.34
2022-08-10T04:56:31.191Z,16.51
2022-08-10T04:58:59.737Z,16.38
2022-08-10T05:01:27.259Z,16.51
2022-08-10T05:04:34.973Z,16.61
2022-08-10T05:06:53.366Z,16.57
2022-08-10T05:09:20.933Z,16.58
2022-08-10T05:11:49.717Z,16.60
2022-08-10T05:14:17.119Z,16.65
2022-08-10T05:16:44.524Z,16.75
2022-08-10T05:19:11.896Z,16.96
2022-08-10T05:21:56.968Z,17.13
2022-08-10T05:24:26.738Z,17.19
2022-08-10T05:27:08.366Z,17.31
2022-08-10T05:29:37.938Z,17.43
2022-08-10T05:32:06.158Z,17.52
2022-08-10T05:34:33.982Z,17.52
2022-08-10T05:37:02.254Z,17.51
2022-08-10T05:39:32.117Z,17.42
2022-08-10T05:42:02.875Z,17.66
2022-08-10T05:44:31.037Z,17.83
2022-08-10T05:46:58.681Z,17.73
2022-08-10T05:49:26.108Z,17.64
2022-08-10T05:51:53.713Z,17.51
2022-08-10T05:54:21.223Z,17.41
2022-08-10T05:56:55.827Z,17.31
2022-08-10T06:00:34.838Z,17.39
2022-08-10T06:02:33.928Z,17.41
2022-08-10T06:05:10.464Z,17.67
2022-08-10T06:07:43.605Z,17.70
2022-08-10T06:10:31.039Z,18.00
2022-08-10T06:13:26.777Z,18.09
2022-08-10T06:16:02.041Z,18.31
2022-08-10T06:18:29.971Z,18.62
2022-08-10T06:20:58.273Z,18.72
2022-08-10T06:23:27.189Z,18.69
2022-08-10T06:26:11.333Z,18.67
2022-08-10T06:28:43.461Z,18.97
2022-08-10T06:31:48.767Z,19.37
2022-08-10T06:34:20.413Z,19.49
2022-08-10T06:36:48.860Z,19.64
2022-08-10T06:39:32.964Z,19.76
2022-08-10T06:42:16.443Z,20.00
2022-08-10T06:44:54.612Z,19.94
2022-08-10T06:47:26.822Z,20.04
2022-08-10T06:50:00.078Z,20.25
2022-08-10T06:52:32.302Z,20.51
2022-08-10T06:55:09.065Z,20.66
2022-08-10T06:57:38.792Z,20.84
2022-08-10T07:00:08.763Z,21.03
2022-08-10T07:02:45.701Z,20.43
2022-08-10T07:05:18.076Z,20.40
2022-08-10T07:07:47.814Z,20.79
2022-08-10T07:10:19.490Z,21.23
2022-08-10T07:12:48.662Z,21.77
2022-08-10T07:15:18.264Z,22.09
2022-08-10T07:17:47.771Z,22.66
2022-08-10T07:20:17.283Z,23.04
2022-08-10T07:23:08.110Z,23.56
2022-08-10T07:25:36.039Z,24.64
2022-08-10T07:28:04.351Z,25.08
2022-08-10T07:30:36.874Z,25.88
2022-08-10T07:33:07.311Z,25.91
2022-08-10T07:35:42.084Z,25.93
2022-08-10T07:38:13.993Z,25.91
2022-08-10T07:40:42.672Z,25.01
2022-08-10T07:43:11.590Z,24.28
2022-08-10T07:45:40.787Z,23.72
2022-08-10T07:48:12.706Z,23.85
2022-08-10T07:50:41.865Z,23.69
2022-08-10T07:53:13.672Z,23.47
2022-08-10T07:56:07.522Z,23.39
2022-08-10T07:58:35.022Z,23.16
2022-08-10T08:01:02.488Z,23.43
2022-08-10T08:03:33.435Z,23.62
2022-08-10T08:06:05.527Z,23.78
2022-08-10T08:08:41.052Z,23.66
2022-08-10T08:11:10.141Z,23.83
2022-08-10T08:13:55.431Z,24.24
2022-08-10T08:16:23.732Z,24.74
2022-08-10T08:19:26.362Z,24.61
2022-08-10T08:24:04.729Z,24.99
2022-08-10T08:24:36.482Z,25.05
2022-08-10T08:27:05.430Z,25.33
2022-08-10T08:29:36.168Z,25.62
2022-08-10T08:32:04.866Z,25.97
2022-08-10T08:34:37.470Z,26.37
2022-08-10T08:37:06.436Z,26.49
2022-08-10T08:39:35.991Z,26.44
2022-08-10T08:42:36.180Z,26.05
2022-08-10T08:45:14.390Z,26.43
2022-08-10T08:48:06.279Z,26.64
2022-08-10T08:50:48.233Z,26.74
2022-08-10T08:54:02.314Z,26.91
2022-08-10T08:56:31.758Z,26.96
2022-08-10T08:59:09.745Z,27.21
2022-08-10T09:01:51.167Z,26.30
2022-08-10T09:04:37.161Z,26.91
2022-08-10T09:07:59.149Z,27.55
2022-08-10T09:10:37.542Z,27.33
2022-08-10T09:13:11.631Z,27.54
2022-08-10T09:15:45.705Z,27.89
2022-08-10T09:18:18.829Z,27.70
2022-08-10T09:20:50.246Z,28.16
2022-08-10T09:24:05.429Z,28.48
2022-08-10T09:26:20.672Z,27.92
2022-08-10T09:29:00.438Z,28.39
2022-08-10T09:32:54.977Z,28.70
2022-08-10T09:36:20.690Z,28.74
2022-08-10T09:37:39.972Z,28.93
2022-08-10T09:40:59.563Z,29.65
2022-08-10T09:43:26.056Z,29.21
2022-08-10T09:46:05.154Z,29.56
2022-08-10T09:48:40.372Z,29.98
2022-08-10T09:54:13.599Z,28.05
2022-08-10T09:57:06.991Z,27.49
2022-08-10T09:59:59.844Z,27.18
2022-08-10T10:02:39.110Z,27.52
2022-08-10T10:05:18.798Z,27.94
2022-08-10T10:07:54.652Z,27.88
2022-08-10T10:10:29.086Z,28.22
2022-08-10T10:13:01.120Z,28.80
2022-08-10T10:15:35.926Z,27.54
2022-08-10T10:18:19.856Z,28.05
2022-08-10T10:20:56.579Z,28.14
2022-08-10T10:23:36.030Z,28.36
2022-08-10T10:26:18.455Z,27.99
2022-08-10T10:29:30.871Z,28.16
2022-08-10T10:31:58.711Z,28.25
2022-08-10T10:34:35.964Z,28.39
2022-08-10T10:37:06.475Z,28.71
2022-08-10T10:39:36.851Z,28.37
2022-08-10T10:42:42.192Z,27.70
2022-08-10T10:45:19.137Z,27.81
2022-08-10T10:48:00.372Z,27.55
2022-08-10T10:50:35.647Z,27.76
2022-08-10T10:53:11.145Z,27.92
2022-08-10T10:56:13.252Z,28.42
2022-08-10T10:58:44.118Z,28.19
2022-08-10T11:01:26.743Z,27.57
2022-08-10T11:04:06.226Z,27.57
2022-08-10T11:06:45.376Z,27.57
2022-08-10T11:10:07.960Z,27.11
2022-08-10T11:12:21.433Z,27.56
2022-08-10T11:15:02.174Z,28.03
2022-08-10T11:17:47.180Z,28.41
2022-08-10T11:20:18.797Z,28.06
2022-08-10T11:22:53.985Z,28.09
2022-08-10T11:25:30.326Z,28.08
2022-08-10T11:28:04.345Z,27.86
2022-08-10T11:30:34.944Z,27.92
2022-08-10T11:33:15.172Z,28.26
2022-08-10T11:36:04.248Z,28.67
2022-08-10T11:38:57.549Z,29.02
2022-08-10T11:42:12.442Z,29.38
2022-08-10T11:44:29.496Z,29.90
2022-08-10T11:47:03.991Z,30.14
2022-08-10T11:49:37.483Z,30.10
2022-08-10T11:52:10.407Z,30.16
2022-08-10T11:54:43.041Z,30.71
2022-08-10T11:57:12.555Z,30.87
2022-08-10T11:59:59.408Z,30.81
2022-08-10T12:02:34.510Z,30.12
2022-08-10T12:05:08.489Z,29.42
2022-08-10T12:08:54.862Z,29.95
2022-08-10T12:10:29.201Z,29.62
2022-08-10T12:13:05.800Z,30.29
2022-08-10T12:15:36.759Z,30.26
2022-08-10T12:18:09.444Z,30.38
2022-08-10T12:20:40.237Z,30.54
2022-08-10T12:23:12.735Z,30.39
2022-08-10T12:25:56.080Z,30.60
2022-08-10T12:28:50.103Z,30.21
2022-08-10T12:31:22.272Z,30.66
2022-08-10T12:34:02.392Z,30.48
2022-08-10T12:36:40.675Z,30.36
2022-08-10T12:39:15.813Z,30.48
2022-08-10T12:41:52.419Z,30.67
2022-08-10T12:44:41.180Z,30.40
2022-08-10T12:47:17.910Z,30.25
2022-08-10T12:50:30.264Z,29.34
2022-08-10T12:52:51.477Z,28.98
2022-08-10T12:55:20.452Z,29.18
2022-08-10T12:57:52.812Z,28.92
2022-08-10T13:00:20.955Z,29.00
2022-08-10T13:02:49.919Z,29.15
2022-08-10T13:05:18.457Z,28.94
2022-08-10T13:08:26.909Z,29.06
2022-08-10T13:11:00.282Z,28.66
2022-08-10T13:13:33.188Z,28.72
2022-08-10T13:16:01.429Z,28.68
2022-08-10T13:18:33.769Z,29.12
2022-08-10T13:21:20.551Z,29.26
2022-08-10T13:24:07.038Z,28.84
2022-08-10T13:27:14.493Z,29.38
2022-08-10T13:29:33.151Z,29.60
2022-08-10T13:32:10.835Z,29.58
2022-08-10T13:34:45.257Z,29.16
2022-08-10T13:37:16.786Z,28.62
2022-08-10T13:39:59.325Z,28.51
2022-08-10T13:42:32.334Z,28.45
2022-08-10T13:45:12.015Z,28.13
2022-08-10T13:47:48.555Z,28.15
2022-08-10T13:50:34.820Z,28.11
2022-08-10T13:53:10.017Z,28.08
2022-08-10T13:55:54.515Z,28.33
2022-08-10T13:58:26.754Z,28.76
2022-08-10T14:00:56.656Z,29.20
2022-08-10T14:03:26.740Z,29.49
2022-08-10T14:05:56.938Z,29.75
2022-08-10T14:08:27.471Z,30.19
2022-08-10T14:11:10.317Z,30.19
2022-08-10T14:13:44.111Z,29.86
2022-08-10T14:16:12.668Z,30.36
2022-08-10T14:18:42.149Z,30.59
2022-08-10T14:21:10.009Z,29.94
2022-08-10T14:23:41.230Z,29.87
2022-08-10T14:26:15.838Z,29.66
2022-08-10T14:28:46.740Z,29.52
2022-08-10T14:31:21.117Z,29.10
2022-08-10T14:33:54.499Z,28.85
2022-08-10T14:36:33.082Z,28.48
2022-08-10T14:39:03.436Z,28.28
2022-08-10T14:42:01.380Z,28.39
2022-08-10T14:44:25.642Z,28.24
2022-08-10T14:46:56.403Z,28.12
2022-08-10T14:49:27.194Z,28.23
2022-08-10T14:52:02.001Z,28.18
2022-08-10T14:54:33.167Z,28.17
2022-08-10T14:57:11.447Z,28.09
2022-08-10T15:00:24.519Z,27.98
2022-08-10T15:02:40.495Z,28.15
2022-08-10T15:05:22.629Z,28.04
2022-08-10T15:07:59.465Z,27.92
2022-08-10T15:10:28.247Z,27.85
2022-08-10T15:12:58.931Z,27.88
2022-08-10T15:15:31.268Z,27.74
2022-08-10T15:18:18.465Z,27.62
2022-08-10T15:20:57.095Z,27.64
2022-08-10T15:23:30.689Z,27.78
2022-08-10T15:26:11.285Z,27.59
2022-08-10T15:29:23.656Z,27.51
2022-08-10T15:31:35.043Z,27.47
2022-08-10T15:34:22.169Z,27.48
2022-08-10T15:37:36.829Z,27.50
2022-08-10T15:40:24.404Z,27.57
2022-08-10T15:43:02.252Z,27.67
2022-08-10T15:45:35.676Z,27.59
2022-08-10T15:48:06.779Z,27.56
2022-08-10T15:50:40.676Z,27.69
2022-08-10T15:53:16.565Z,27.75
2022-08-10T15:55:51.525Z,27.90
2022-08-10T15:58:38.883Z,28.20
2022-08-10T16:02:04.558Z,28.31
2022-08-10T16:04:08.455Z,28.45
2022-08-10T16:06:40.306Z,28.48
2022-08-10T16:10:10.602Z,28.64
2022-08-10T16:12:05.721Z,28.73
2022-08-10T16:14:36.740Z,28.65
2022-08-10T16:17:10.315Z,28.66
2022-08-10T16:19:39.175Z,28.66
2022-08-10T16:22:35.405Z,28.69
2022-08-10T16:24:58.078Z,28.63
2022-08-10T16:27:28.944Z,28.52
2022-08-10T16:30:00.586Z,28.63
2022-08-10T16:32:31.481Z,28.64
2022-08-10T16:35:01.705Z,28.63
2022-08-10T16:37:57.235Z,28.52
2022-08-10T16:40:26.800Z,28.41
2022-08-10T16:42:55.042Z,28.34
2022-08-10T16:45:30.356Z,28.23
2022-08-10T16:48:00.186Z,28.04
2022-08-10T16:50:31.064Z,27.89
2022-08-10T16:53:02.118Z,27.78
2022-08-10T16:55:48.791Z,27.76
2022-08-10T16:58:20.458Z,27.49
2022-08-10T17:00:49.059Z,27.35
2022-08-10T17:03:22.781Z,27.38
2022-08-10T17:06:13.511Z,27.40
2022-08-10T17:08:48.412Z,27.04
2022-08-10T17:11:17.411Z,26.90
2022-08-10T17:13:44.894Z,26.86
2022-08-10T17:16:16.432Z,26.55
2022-08-10T17:18:47.895Z,26.59
2022-08-10T17:21:20.328Z,26.49
2022-08-10T17:23:51.907Z,26.59
2022-08-10T17:26:24.750Z,26.86
2022-08-10T17:29:08.664Z,26.59
2022-08-10T17:31:54.378Z,26.58
2022-08-10T17:34:29.636Z,26.35
2022-08-10T17:36:58.943Z,26.32
2022-08-10T17:39:39.226Z,26.03
2022-08-10T17:42:09.279Z,25.81
2022-08-10T17:44:38.860Z,25.63
2022-08-10T17:47:10.500Z,25.43
2022-08-10T17:49:42.111Z,25.29
2022-08-10T17:52:12.897Z,25.11
2022-08-10T17:54:44.249Z,24.96
2022-08-10T17:57:15.135Z,24.88
2022-08-10T17:59:43.591Z,24.80
2022-08-10T18:02:15.082Z,24.75
2022-08-10T18:04:49.594Z,24.59
2022-08-10T18:07:18.998Z,24.49
2022-08-10T18:09:50.688Z,24.49
2022-08-10T18:12:30.504Z,24.42
2022-08-10T18:15:08.548Z,24.44
2022-08-10T18:17:44.245Z,24.44
2022-08-10T18:20:15.232Z,24.61
2022-08-10T18:22:45.617Z,24.86
2022-08-10T18:25:19.261Z,24.57
2022-08-10T18:28:00.898Z,24.40
2022-08-10T18:30:36.606Z,24.37
2022-08-10T18:33:09.459Z,24.39
2022-08-10T18:35:39.466Z,24.30
2022-08-10T18:38:08.479Z,24.26
2022-08-10T18:40:38.894Z,24.31
2022-08-10T18:44:09.956Z,24.17
2022-08-10T18:45:59.529Z,24.03
2022-08-10T18:48:35.051Z,23.79
2022-08-10T18:51:07.192Z,23.60
2022-08-10T18:53:37.952Z,23.58
2022-08-10T18:56:13.913Z,23.36
2022-08-10T18:58:52.344Z,23.24
2022-08-10T19:01:38.716Z,23.15
2022-08-10T19:04:28.182Z,22.97
2022-08-10T19:07:08.432Z,22.94
2022-08-10T19:09:58.725Z,22.76
2022-08-10T19:12:40.598Z,22.65
2022-08-10T19:15:20.298Z,22.53
2022-08-10T19:18:03.202Z,22.54
2022-08-10T19:20:38.822Z,22.39
2022-08-10T19:23:18.640Z,22.31
2022-08-10T19:26:42.323Z,22.26
2022-08-10T19:28:48.031Z,21.94
2022-08-10T19:34:34.305Z,21.88
2022-08-10T19:37:11.041Z,21.80
2022-08-10T19:39:59.083Z,21.75
2022-08-10T19:42:32.480Z,21.70
2022-08-10T19:45:07.303Z,21.66
2022-08-10T19:47:39.789Z,21.69
2022-08-10T19:50:11.962Z,21.57
2022-08-10T19:52:45.133Z,21.52
2022-08-10T19:55:18.609Z,21.32
2022-08-10T19:57:54.113Z,21.28
2022-08-10T20:00:27.010Z,21.25
2022-08-10T20:03:07.851Z,21.31
2022-08-10T20:06:18.665Z,21.13
2022-08-10T20:08:45.432Z,21.07
2022-08-10T20:11:44.327Z,21.03
2022-08-10T20:14:21.677Z,21.02
2022-08-10T20:16:52.346Z,21.01
2022-08-10T20:19:52.433Z,20.96
2022-08-10T20:22:28.690Z,20.90
2022-08-10T20:25:01.507Z,20.83
2022-08-10T20:27:59.836Z,20.75
2022-08-10T20:30:31.974Z,20.74
2022-08-10T20:33:05.771Z,20.66
2022-08-10T20:35:47.726Z,20.52
2022-08-10T20:38:23.171Z,20.52
2022-08-10T20:41:03.623Z,20.59
2022-08-10T20:43:42.561Z,20.42
2022-08-10T20:46:19.059Z,20.42
2022-08-10T20:48:51.990Z,20.39
2022-08-10T20:51:23.908Z,20.42
2022-08-10T20:54:12.353Z,20.31
2022-08-10T20:56:48.116Z,20.23
2022-08-10T21:00:04.334Z,20.14
2022-08-10T21:02:49.004Z,20.08
2022-08-10T21:05:21.481Z,20.08
2022-08-10T21:08:06.232Z,19.89
2022-08-10T21:10:56.460Z,19.94
2022-08-10T21:13:54.303Z,19.92
2022-08-10T21:16:37.741Z,19.81
2022-08-10T21:19:35.336Z,19.72
2022-08-10T21:22:12.769Z,19.77
2022-08-10T21:24:59.192Z,19.72
2022-08-10T21:27:49.083Z,19.78
2022-08-10T21:30:35.863Z,19.65
2022-08-10T21:33:09.412Z,19.60
2022-08-10T21:35:42.437Z,19.60
2022-08-10T21:38:21.375Z,19.61
2022-08-10T21:41:57.933Z,19.53
2022-08-10T21:44:42.283Z,19.32
2022-08-10T21:47:41.750Z,19.45
2022-08-10T21:50:46.871Z,19.44
2022-08-10T21:53:44.018Z,19.27
2022-08-10T21:56:54.491Z,19.21
2022-08-10T21:59:48.909Z,19.15
2022-08-10T22:02:50.372Z,19.08
2022-08-10T22:05:39.192Z,18.99
2022-08-10T22:08:44.413Z,18.97
2022-08-10T22:11:37.553Z,19.14
2022-08-10T22:14:25.983Z,18.94
2022-08-10T22:18:10.541Z,18.96
2022-08-10T22:20:24.994Z,18.89
2022-08-10T22:23:29.125Z,18.80
2022-08-10T22:26:31.237Z,18.84
2022-08-10T22:29:22.683Z,18.77
2022-08-10T22:32:20.586Z,18.73
2022-08-10T22:35:21.528Z,18.62
2022-08-10T22:38:16.581Z,18.81
2022-08-10T22:41:04.125Z,19.04
2022-08-10T22:43:52.826Z,19.18
2022-08-10T22:46:40.778Z,19.10
2022-08-10T22:49:07.927Z,18.90
2022-08-10T22:51:59.024Z,18.79
2022-08-10T22:54:49.743Z,18.88
2022-08-10T22:57:35.562Z,18.75
2022-08-10T23:00:31.259Z,18.58
2022-08-10T23:03:08.010Z,18.59
2022-08-10T23:05:38.909Z,18.88
2022-08-10T23:08:19.544Z,18.90
2022-08-10T23:11:04.078Z,18.93
2022-08-10T23:13:36.918Z,18.89
2022-08-10T23:16:33.021Z,18.78
2022-08-10T23:19:09.726Z,18.80
2022-08-10T23:22:04.237Z,18.67
2022-08-10T23:24:37.477Z,18.64
2022-08-10T23:27:12.942Z,18.64
2022-08-10T23:30:09.842Z,18.55
2022-08-10T23:32:46.248Z,18.61
2022-08-10T23:36:32.442Z,18.51
2022-08-10T23:38:05.354Z,18.50
2022-08-10T23:40:34.174Z,18.39
2022-08-10T23:43:02.752Z,18.33
2022-08-10T23:45:53.707Z,18.29
2022-08-10T23:48:24.641Z,18.30
2022-08-10T23:50:58.415Z,18.19
2022-08-10T23:53:29.966Z,18.16
2022-08-10T23:56:04.103Z,18.13
2022-08-10T23:58:39.281Z,17.96
